»·PEaware :: N4166Z KSBP-KSNS

N4166Z :: KSBP-KSNS

FLIGHT INFORMATION

Flight Status: Arrived
Operator: Privately registered:
United States
More flights under this callsign
Pilot: Brian M. (23689)
Aircraft: PIPER PA-28 CHEROKEE ARCHER
(P28A)
More flights by this aircraft type
Origin: KSBP San Luis Co Regl
United States
Destination: KSNS Salinas Mun
United States
More flights between these airports :: More routes between these airports
Route: KSBP PRB V248 SNS KSNS
File this flight plan on PilotEdge
Remarks:
Altitude:
(Current/Filed)
8,000ft
Speed:
(Current/Filed)
105kts
Departed: 13-Apr-19 03:32 PM
Arrived: 13-Apr-19 04:53 PM
Distance/Time
Traveled:
98nm/1:21
Distance/Time
To Go:
Arrived

Flight Plot

Page will automatically refresh every two minutes.


Map Options




Map Legend


Flown Route
Filed Route
Departure Airport
Arrival Airport
Navaid (VOR, NDB)
Fix

Horizontal Profiles

Position Reports

Time Latitude Longitude Heading Altitude Ground
Speed
13-Apr-19 15:13 35.237697 -120.645851 270 215ft 0kts
13-Apr-19 15:14 35.237697 -120.645851 270 215ft 0kts
13-Apr-19 15:15 35.237697 -120.645851 270 215ft 0kts
13-Apr-19 15:16 35.237697 -120.645851 270 215ft 0kts
13-Apr-19 15:17 35.237697 -120.645851 270 215ft 0kts
13-Apr-19 15:18 35.237697 -120.645851 270 215ft 0kts
13-Apr-19 15:19 35.237697 -120.645851 270 215ft 0kts
13-Apr-19 15:20 35.237697 -120.645851 270 215ft 0kts
13-Apr-19 15:21 35.237697 -120.645851 270 215ft 0kts
13-Apr-19 15:22 35.237431 -120.645590 91 215ft 6kts
13-Apr-19 15:23 35.237447 -120.643391 87 215ft 10kts
13-Apr-19 15:24 35.237781 -120.641505 94 215ft 11kts
13-Apr-19 15:25 35.237060 -120.638622 124 215ft 12kts
13-Apr-19 15:26 35.235737 -120.636265 122 215ft 10kts
13-Apr-19 15:27 35.234543 -120.634209 124 215ft 9kts
13-Apr-19 15:28 35.233481 -120.632330 118 215ft 9kts
13-Apr-19 15:29 35.233299 -120.631996 167 215ft 0kts
13-Apr-19 15:30 35.233256 -120.632114 254 215ft 4kts
13-Apr-19 15:30 35.233188 -120.632290 222 215ft 0kts
13-Apr-19 15:32 35.234431 -120.636080 304 215ft 64kts
13-Apr-19 15:33 35.245297 -120.650897 300 824ft 76kts
13-Apr-19 15:34 35.260271 -120.659861 356 1511ft 84kts
13-Apr-19 15:35 35.278479 -120.660549 351 2164ft 83kts
13-Apr-19 15:35 35.293488 -120.665691 328 2688ft 82kts
13-Apr-19 15:37 35.314532 -120.666502 11 3418ft 86kts
13-Apr-19 15:37 35.329923 -120.659870 15 3923ft 86kts
13-Apr-19 15:38 35.348479 -120.654857 3 4496ft 83kts
13-Apr-19 15:39 35.367006 -120.654795 346 5063ft 79kts
13-Apr-19 15:40 35.385163 -120.654733 3 5581ft 81kts
13-Apr-19 15:41 35.403355 -120.651985 1 6090ft 80kts
13-Apr-19 15:42 35.421331 -120.648596 357 6576ft 79kts
13-Apr-19 15:43 35.439557 -120.648321 358 7044ft 79kts
13-Apr-19 15:44 35.458196 -120.645522 356 7499ft 79kts
13-Apr-19 15:45 35.476822 -120.643686 5 7942ft 79kts
13-Apr-19 15:46 35.495786 -120.639493 6 8131ft 96kts
13-Apr-19 15:47 35.518754 -120.633886 11 7976ft 114kts
13-Apr-19 15:48 35.541787 -120.630410 0 7936ft 109kts
13-Apr-19 15:49 35.565190 -120.629429 2 7954ft 108kts
13-Apr-19 15:50 35.590978 -120.626587 4 7943ft 110kts
13-Apr-19 15:51 35.615233 -120.624645 2 8026ft 105kts
13-Apr-19 15:52 35.639551 -120.622705 1 8037ft 111kts
13-Apr-19 15:53 35.664894 -120.620830 1 8075ft 112kts
13-Apr-19 15:54 35.689925 -120.629375 340 8016ft 116kts
13-Apr-19 15:55 35.712705 -120.641969 332 8000ft 114kts
13-Apr-19 15:56 35.734251 -120.656015 332 7967ft 115kts
13-Apr-19 15:57 35.757017 -120.665823 341 7952ft 115kts
13-Apr-19 15:58 35.779897 -120.675172 339 7967ft 113kts
13-Apr-19 15:59 35.802754 -120.683653 344 8001ft 113kts
13-Apr-19 16:00 35.825504 -120.692033 340 8025ft 114kts
13-Apr-19 16:01 35.849565 -120.700501 343 8027ft 115kts
13-Apr-19 16:02 35.873523 -120.709235 340 8030ft 115kts
13-Apr-19 16:03 35.897666 -120.717663 344 8036ft 115kts
13-Apr-19 16:04 35.921030 -120.728311 339 8037ft 115kts
13-Apr-19 16:05 35.945399 -120.738076 341 8004ft 120kts
13-Apr-19 16:06 35.970302 -120.748099 336 8006ft 119kts
13-Apr-19 16:07 35.994980 -120.758791 335 8010ft 119kts
13-Apr-19 16:08 36.019399 -120.770622 336 8017ft 119kts
13-Apr-19 16:09 36.043957 -120.781910 335 8018ft 119kts
13-Apr-19 16:10 36.068499 -120.793861 335 8023ft 119kts
13-Apr-19 16:11 36.091418 -120.808565 304 8023ft 116kts
13-Apr-19 16:12 36.109287 -120.830891 315 8028ft 117kts
13-Apr-19 16:13 36.129742 -120.854326 316 8034ft 117kts
13-Apr-19 16:14 36.149002 -120.878983 309 8033ft 116kts
13-Apr-19 16:15 36.167230 -120.904528 304 8031ft 116kts
13-Apr-19 16:16 36.183225 -120.932605 302 8030ft 116kts
13-Apr-19 16:17 36.201144 -120.959238 308 8028ft 116kts
13-Apr-19 16:18 36.218687 -120.986636 305 8043ft 115kts
13-Apr-19 16:19 36.237791 -121.012015 308 8059ft 113kts
13-Apr-19 16:20 36.256589 -121.037483 309 8075ft 112kts
13-Apr-19 16:21 36.274550 -121.063581 304 8097ft 111kts
13-Apr-19 16:22 36.292468 -121.089242 312 8055ft 112kts
13-Apr-19 16:23 36.311163 -121.114576 309 7977ft 111kts
13-Apr-19 16:24 36.328380 -121.139768 309 7958ft 107kts
13-Apr-19 16:25 36.345372 -121.164440 313 7950ft 106kts
13-Apr-19 16:26 36.363992 -121.186972 318 7955ft 105kts
13-Apr-19 16:27 36.382334 -121.209497 312 7932ft 107kts
13-Apr-19 16:28 36.398468 -121.234651 309 7965ft 104kts
13-Apr-19 16:29 36.414230 -121.260022 315 7979ft 104kts
13-Apr-19 16:30 36.431774 -121.283137 312 8002ft 104kts
13-Apr-19 16:31 36.448945 -121.306550 313 8020ft 104kts
13-Apr-19 16:32 36.465440 -121.330660 312 8033ft 104kts
13-Apr-19 16:33 36.480710 -121.356079 307 8046ft 104kts
13-Apr-19 16:34 36.496514 -121.380842 312 8058ft 104kts
13-Apr-19 16:35 36.512580 -121.405438 311 8005ft 105kts
13-Apr-19 16:36 36.528524 -121.429009 310 7831ft 101kts
13-Apr-19 16:37 36.543890 -121.450531 322 7107ft 102kts
13-Apr-19 16:38 36.560236 -121.470554 311 6390ft 102kts
13-Apr-19 16:39 36.574677 -121.492007 312 5739ft 100kts
13-Apr-19 16:40 36.590040 -121.513187 313 5114ft 101kts
13-Apr-19 16:41 36.606575 -121.532245 319 4475ft 98kts
13-Apr-19 16:42 36.622496 -121.551713 313 3710ft 98kts
13-Apr-19 16:43 36.638208 -121.572610 311 2969ft 96kts
13-Apr-19 16:44 36.653624 -121.593168 312 2040ft 96kts
13-Apr-19 16:45 36.669074 -121.611760 318 1084ft 95kts
13-Apr-19 16:46 36.685752 -121.627519 330 925ft 97kts
13-Apr-19 16:47 36.679886 -121.611670 156 835ft 104kts
13-Apr-19 16:48 36.667425 -121.594243 97 807ft 87kts
13-Apr-19 16:49 36.668947 -121.572108 89 784ft 89kts
13-Apr-19 16:50 36.658438 -121.573639 274 718ft 72kts
13-Apr-19 16:51 36.660309 -121.592129 278 322ft 62kts
13-Apr-19 16:52 36.661731 -121.606004 283 87ft 29kts
13-Apr-19 16:53 36.662778 -121.610822 312 87ft 0kts
13-Apr-19 16:54 36.664422 -121.611834 344 87ft 12kts

Navigation Log

Ident Type
Flight plan parsing failed, navigation log unavailable